createdAt,value
2022-08-08T00:02:03.508Z,100220.69
2022-08-08T00:04:49.008Z,100219.44
2022-08-08T00:07:28.801Z,100216.56
2022-08-08T00:10:22.293Z,100213.94
2022-08-08T00:14:17.372Z,100218.69
2022-08-08T00:16:15.247Z,100196.53
2022-08-08T00:18:47.860Z,100226.50
2022-08-08T00:21:39.672Z,100216.84
2022-08-08T00:24:30.994Z,100211.97
2022-08-08T00:27:05.902Z,100209.91
2022-08-08T00:30:03.331Z,100212.16
2022-08-08T00:32:36.677Z,100179.16
2022-08-08T00:35:25.112Z,100216.16
2022-08-08T00:38:30.993Z,100215.13
2022-08-08T00:41:22.150Z,100210.63
2022-08-08T00:44:42.153Z,100208.75
2022-08-08T00:47:36.914Z,100203.38
2022-08-08T00:50:59.746Z,100211.22
2022-08-08T00:53:43.615Z,100177.22
2022-08-08T00:57:08.753Z,100196.75
2022-08-08T01:00:16.089Z,100207.00
2022-08-08T01:04:01.734Z,100208.00
2022-08-08T01:06:59.931Z,100208.44
2022-08-08T01:09:59.095Z,100207.25
2022-08-08T01:12:36.154Z,100201.31
2022-08-08T01:15:43.445Z,100200.50
2022-08-08T01:18:53.764Z,100197.22
2022-08-08T01:22:12.261Z,100211.53
2022-08-08T01:24:59.958Z,100209.47
2022-08-08T01:28:03.675Z,100208.66
2022-08-08T01:30:59.382Z,100206.16
2022-08-08T01:34:00.170Z,100212.75
2022-08-08T01:36:44.097Z,100214.22
2022-08-08T01:39:34.843Z,100213.19
2022-08-08T01:42:18.663Z,100212.00
2022-08-08T01:45:16.956Z,100215.91
2022-08-08T01:48:31.138Z,100218.19
2022-08-08T01:51:31.916Z,100214.31
2022-08-08T01:55:26.978Z,100213.69
2022-08-08T01:57:17.708Z,100212.25
2022-08-08T02:00:03.054Z,100188.63
2022-08-08T02:02:57.170Z,100222.72
2022-08-08T02:05:58.994Z,100219.88
2022-08-08T02:08:56.494Z,100219.03
2022-08-08T02:11:58.609Z,100207.72
2022-08-08T02:14:55.610Z,100211.66
2022-08-08T02:17:44.485Z,100214.53
2022-08-08T02:21:00.668Z,100222.75
2022-08-08T02:23:20.673Z,100209.81
2022-08-08T02:26:02.397Z,100198.50
2022-08-08T02:28:48.311Z,100226.25
2022-08-08T02:31:59.654Z,100226.25
2022-08-08T02:35:08.217Z,100200.97
2022-08-08T02:38:16.445Z,100223.38
2022-08-08T02:41:18.006Z,100225.41
2022-08-08T02:44:42.437Z,100227.66
2022-08-08T02:46:50.651Z,100197.47
2022-08-08T02:49:48.004Z,100207.75
2022-08-08T02:52:34.954Z,100214.13
2022-08-08T02:55:37.448Z,100226.50
2022-08-08T02:58:16.950Z,100230.19
2022-08-08T03:00:56.572Z,100227.91
2022-08-08T03:05:02.956Z,100240.22
2022-08-08T03:07:20.986Z,100231.16
2022-08-08T03:10:33.717Z,100230.56
2022-08-08T03:15:59.338Z,100240.25
2022-08-08T03:16:35.747Z,100232.19
2022-08-08T03:19:51.210Z,100240.19
2022-08-08T03:22:38.942Z,100251.31
2022-08-08T03:25:09.092Z,100247.63
2022-08-08T03:27:46.213Z,100224.19
2022-08-08T03:30:19.000Z,100245.53
2022-08-08T03:33:56.196Z,100241.22
2022-08-08T03:36:01.585Z,100214.28
2022-08-08T03:38:55.128Z,100241.00
2022-08-08T03:42:26.589Z,100234.63
2022-08-08T03:44:25.721Z,100233.41
2022-08-08T03:46:54.318Z,100244.94
2022-08-08T03:49:58.406Z,100245.34
2022-08-08T03:52:15.234Z,100244.25
2022-08-08T03:55:01.520Z,100244.50
2022-08-08T03:58:34.654Z,100246.94
2022-08-08T04:00:19.043Z,100252.69
2022-08-08T04:02:59.716Z,100218.94
2022-08-08T04:05:35.075Z,100255.56
2022-08-08T04:08:08.589Z,100255.16
2022-08-08T04:10:36.302Z,100253.72
2022-08-08T04:13:18.121Z,100256.31
2022-08-08T04:15:55.088Z,100250.78
2022-08-08T04:18:41.994Z,100260.06
2022-08-08T04:21:23.020Z,100233.56
2022-08-08T04:24:05.648Z,100244.50
2022-08-08T04:26:57.442Z,100268.63
2022-08-08T04:29:27.066Z,100244.13
2022-08-08T04:31:59.500Z,100242.31
2022-08-08T04:34:31.792Z,100274.22
2022-08-08T04:36:59.434Z,100284.50
2022-08-08T04:40:04.419Z,100268.22
2022-08-08T04:42:17.489Z,100272.75
2022-08-08T04:44:47.695Z,100272.38
2022-08-08T04:47:16.632Z,100300.13
2022-08-08T04:50:00.489Z,100266.94
2022-08-08T04:52:33.776Z,100277.84
2022-08-08T04:55:05.766Z,100296.16
2022-08-08T04:57:34.338Z,100313.03
2022-08-08T05:00:04.263Z,100292.63
2022-08-08T05:02:31.972Z,100290.34
2022-08-08T05:05:00.023Z,100300.25
2022-08-08T05:07:37.976Z,100321.81
2022-08-08T05:10:12.993Z,100328.81
2022-08-08T05:13:00.267Z,100310.75
2022-08-08T05:16:48.099Z,100283.81
2022-08-08T05:18:18.254Z,100321.91
2022-08-08T05:20:50.305Z,100306.44
2022-08-08T05:23:19.803Z,100324.78
2022-08-08T05:25:49.681Z,100301.53
2022-08-08T05:28:48.224Z,100298.84
2022-08-08T05:31:19.198Z,100338.97
2022-08-08T05:33:50.882Z,100315.38
2022-08-08T05:36:25.451Z,100298.78
2022-08-08T05:38:59.159Z,100334.22
2022-08-08T05:41:58.388Z,100339.56
2022-08-08T05:44:31.129Z,100339.13
2022-08-08T05:47:03.021Z,100347.75
2022-08-08T05:49:31.117Z,100351.47
2022-08-08T05:51:58.618Z,100321.66
2022-08-08T05:54:49.740Z,100345.91
2022-08-08T05:57:16.092Z,100351.63
2022-08-08T06:00:22.997Z,100286.25
2022-08-08T06:03:10.716Z,100352.63
2022-08-08T06:05:59.371Z,100352.59
2022-08-08T06:08:36.073Z,100351.91
2022-08-08T06:11:08.204Z,100333.56
2022-08-08T06:13:47.847Z,100358.19
2022-08-08T06:16:25.055Z,100344.13
2022-08-08T06:19:16.953Z,100356.34
2022-08-08T06:24:59.151Z,100344.47
2022-08-08T06:27:57.930Z,100365.44
2022-08-08T06:30:28.608Z,100357.84
2022-08-08T06:33:01.161Z,100373.34
2022-08-08T06:36:07.522Z,100368.81
2022-08-08T06:38:28.740Z,100357.69
2022-08-08T06:41:06.350Z,100346.69
2022-08-08T06:43:36.749Z,100370.53
2022-08-08T06:46:08.935Z,100371.06
2022-08-08T06:48:38.438Z,100365.13
2022-08-08T06:51:07.574Z,100364.09
2022-08-08T06:53:40.100Z,100364.13
2022-08-08T06:56:19.836Z,100366.75
2022-08-08T06:58:50.834Z,100365.44
2022-08-08T07:02:16.257Z,100356.25
2022-08-08T07:04:39.932Z,100357.22
2022-08-08T07:07:16.341Z,100378.22
2022-08-08T07:09:59.357Z,100363.78
2022-08-08T07:12:41.262Z,100381.19
2022-08-08T07:15:32.051Z,100371.47
2022-08-08T07:18:35.775Z,100373.44
2022-08-08T07:21:04.924Z,100372.78
2022-08-08T07:24:01.726Z,100370.00
2022-08-08T07:27:09.178Z,100372.72
2022-08-08T07:29:59.749Z,100342.69
2022-08-08T07:32:27.136Z,100352.72
2022-08-08T07:35:01.103Z,100372.94
2022-08-08T07:37:56.376Z,100366.59
2022-08-08T07:40:32.707Z,100372.78
2022-08-08T07:43:13.438Z,100367.41
2022-08-08T07:46:05.541Z,100362.56
2022-08-08T07:48:35.323Z,100368.06
2022-08-08T07:51:04.255Z,100371.88
2022-08-08T07:54:01.288Z,100382.13
2022-08-08T07:56:44.223Z,100383.25
2022-08-08T07:59:15.426Z,100382.75
2022-08-08T08:02:32.980Z,100360.47
2022-08-08T08:04:46.768Z,100381.44
2022-08-08T08:07:18.241Z,100370.31
2022-08-08T08:09:49.556Z,100383.41
2022-08-08T08:12:35.147Z,100386.03
2022-08-08T08:15:07.008Z,100386.09
2022-08-08T08:17:48.523Z,100380.69
2022-08-08T08:20:30.306Z,100386.44
2022-08-08T08:23:00.924Z,100374.91
2022-08-08T08:25:43.838Z,100386.81
2022-08-08T08:28:21.287Z,100381.38
2022-08-08T08:30:53.816Z,100390.44
2022-08-08T08:33:22.993Z,100354.66
2022-08-08T08:36:18.587Z,100389.28
2022-08-08T08:38:49.703Z,100361.31
2022-08-08T08:41:22.345Z,100374.28
2022-08-08T08:43:52.013Z,100369.91
2022-08-08T08:46:20.217Z,100373.06
2022-08-08T08:48:55.072Z,100373.53
2022-08-08T08:51:26.434Z,100357.47
2022-08-08T08:54:01.381Z,100371.03
2022-08-08T08:56:36.431Z,100364.31
2022-08-08T08:59:17.930Z,100370.47
2022-08-08T09:01:56.215Z,100359.53
2022-08-08T09:04:38.530Z,100368.50
2022-08-08T09:07:19.339Z,100356.75
2022-08-08T09:09:57.299Z,100363.53
2022-08-08T09:12:33.991Z,100364.66
2022-08-08T09:15:02.604Z,100367.31
2022-08-08T09:17:41.742Z,100359.66
2022-08-08T09:22:01.644Z,100361.25
2022-08-08T09:23:11.476Z,100366.28
2022-08-08T09:26:01.979Z,100361.72
2022-08-08T09:28:38.571Z,100365.09
2022-08-08T09:31:21.392Z,100362.81
2022-08-08T09:34:15.989Z,100357.31
2022-08-08T09:36:51.687Z,100341.53
2022-08-08T09:39:47.718Z,100345.31
2022-08-08T09:42:23.235Z,100352.72
2022-08-08T09:45:20.860Z,100352.97
2022-08-08T09:48:05.042Z,100353.22
2022-08-08T09:50:43.745Z,100326.34
2022-08-08T09:53:31.917Z,100347.78
2022-08-08T09:56:07.062Z,100347.00
2022-08-08T09:58:44.679Z,100345.38
2022-08-08T10:01:14.447Z,100345.00
2022-08-08T10:04:02.445Z,100345.41
2022-08-08T10:06:32.343Z,100323.63
2022-08-08T10:09:00.160Z,100334.88
2022-08-08T10:12:28.274Z,100333.78
2022-08-08T10:14:28.097Z,100331.22
2022-08-08T10:17:06.250Z,100329.31
2022-08-08T10:19:58.669Z,100289.41
2022-08-08T10:22:32.357Z,100322.75
2022-08-08T10:25:04.813Z,100331.44
2022-08-08T10:27:43.471Z,100315.44
2022-08-08T10:30:16.672Z,100292.78
2022-08-08T10:33:00.409Z,100307.88
2022-08-08T10:36:09.490Z,100320.81
2022-08-08T10:38:19.629Z,100311.72
2022-08-08T10:40:51.369Z,100297.47
2022-08-08T10:43:20.052Z,100296.75
2022-08-08T10:45:56.523Z,100309.31
2022-08-08T10:48:57.206Z,100248.22
2022-08-08T10:51:50.914Z,100295.53
2022-08-08T10:54:25.248Z,100307.22
2022-08-08T10:56:58.464Z,100301.19
2022-08-08T10:59:27.082Z,100293.97
2022-08-08T11:02:04.854Z,100277.25
2022-08-08T11:04:39.108Z,100294.47
2022-08-08T11:07:06.671Z,100302.47
2022-08-08T11:09:34.331Z,100298.03
2022-08-08T11:12:13.210Z,100286.03
2022-08-08T11:14:50.465Z,100290.03
2022-08-08T11:18:00.663Z,100283.31
2022-08-08T11:20:13.166Z,100278.56
2022-08-08T11:22:41.528Z,100262.94
2022-08-08T11:25:14.405Z,100282.50
2022-08-08T11:27:42.557Z,100246.44
2022-08-08T11:30:24.458Z,100279.88
2022-08-08T11:32:56.689Z,100273.41
2022-08-08T11:35:38.276Z,100269.50
2022-08-08T11:38:35.411Z,100263.41
2022-08-08T11:40:56.682Z,100254.00
2022-08-08T11:43:38.847Z,100266.34
2022-08-08T11:46:14.018Z,100244.78
2022-08-08T11:48:47.697Z,100274.69
2022-08-08T11:51:29.829Z,100256.75
2022-08-08T11:54:01.361Z,100255.13
2022-08-08T11:56:35.037Z,100264.38
2022-08-08T11:59:11.805Z,100269.38
2022-08-08T12:01:38.761Z,100261.13
2022-08-08T12:04:08.219Z,100272.47
2022-08-08T12:06:35.014Z,100239.66
2022-08-08T12:09:07.275Z,100244.34
2022-08-08T12:11:39.796Z,100253.84
2022-08-08T12:14:07.745Z,100246.94
2022-08-08T12:16:48.968Z,100236.03
2022-08-08T12:19:16.275Z,100239.78
2022-08-08T12:22:09.355Z,100232.69
2022-08-08T12:24:51.446Z,100238.63
2022-08-08T12:27:21.178Z,100249.38
2022-08-08T12:29:59.986Z,100222.81
2022-08-08T12:32:31.244Z,100208.50
2022-08-08T12:35:04.947Z,100233.06
2022-08-08T12:38:01.039Z,100232.41
2022-08-08T12:40:58.463Z,100226.66
2022-08-08T12:43:47.600Z,100227.97
2022-08-08T12:46:25.416Z,100229.97
2022-08-08T12:49:22.220Z,100227.72
2022-08-08T12:51:50.092Z,100235.59
2022-08-08T12:54:37.720Z,100225.91
2022-08-08T12:57:14.020Z,100234.50
2022-08-08T13:00:05.366Z,100223.44
2022-08-08T13:02:35.828Z,100221.81
2022-08-08T13:05:15.599Z,100204.66
2022-08-08T13:08:03.950Z,100223.91
2022-08-08T13:10:32.930Z,100212.06
2022-08-08T13:13:06.133Z,100215.66
2022-08-08T13:15:35.771Z,100199.81
2022-08-08T13:18:10.468Z,100220.22
2022-08-08T13:20:45.483Z,100204.47
2022-08-08T13:23:41.770Z,100207.88
2022-08-08T13:26:18.324Z,100201.97
2022-08-08T13:28:48.793Z,100201.31
2022-08-08T13:31:16.265Z,100201.41
2022-08-08T13:33:49.797Z,100192.22
2022-08-08T13:36:18.178Z,100181.69
2022-08-08T13:38:53.750Z,100187.97
2022-08-08T13:41:22.172Z,100194.00
2022-08-08T13:43:50.901Z,100187.09
2022-08-08T13:46:28.352Z,100195.28
2022-08-08T13:50:32.397Z,100181.81
2022-08-08T13:52:04.027Z,100199.41
2022-08-08T13:54:33.467Z,100193.59
2022-08-08T13:57:12.717Z,100193.59
2022-08-08T13:59:48.235Z,100194.16
2022-08-08T14:02:33.200Z,100180.41
2022-08-08T14:05:20.372Z,100183.78
2022-08-08T14:07:53.115Z,100184.50
2022-08-08T14:10:33.362Z,100170.16
2022-08-08T14:13:09.888Z,100178.06
2022-08-08T14:15:50.439Z,100173.25
2022-08-08T14:18:36.240Z,100180.00
2022-08-08T14:21:14.845Z,100176.31
2022-08-08T14:24:06.679Z,100154.47
2022-08-08T14:26:46.123Z,100181.00
2022-08-08T14:29:27.088Z,100170.66
2022-08-08T14:32:09.964Z,100182.13
2022-08-08T14:34:42.790Z,100154.34
2022-08-08T14:37:12.810Z,100176.47
2022-08-08T14:39:50.645Z,100157.59
2022-08-08T14:42:54.921Z,100175.00
2022-08-08T14:45:33.436Z,100172.94
2022-08-08T14:48:17.611Z,100169.44
2022-08-08T14:51:04.890Z,100167.84
2022-08-08T14:53:55.790Z,100153.81
2022-08-08T14:56:24.776Z,100149.94
2022-08-08T14:58:52.664Z,100161.41
2022-08-08T15:01:37.651Z,100142.09
2022-08-08T15:04:10.621Z,100157.16
2022-08-08T15:06:37.558Z,100163.16
2022-08-08T15:09:06.939Z,100162.03
2022-08-08T15:11:43.308Z,100168.47
2022-08-08T15:14:14.532Z,100158.13
2022-08-08T15:16:44.493Z,100154.56
2022-08-08T15:19:11.487Z,100161.13
2022-08-08T15:21:42.803Z,100157.56
2022-08-08T15:24:14.038Z,100157.47
2022-08-08T15:26:43.679Z,100158.78
2022-08-08T15:29:19.257Z,100142.38
2022-08-08T15:32:02.896Z,100134.91
2022-08-08T15:34:39.379Z,100152.81
2022-08-08T15:37:06.952Z,100155.94
2022-08-08T15:39:38.483Z,100154.13
2022-08-08T15:42:13.233Z,100162.13
2022-08-08T15:44:51.362Z,100137.78
2022-08-08T15:47:19.376Z,100161.06
2022-08-08T15:49:48.569Z,100149.41
2022-08-08T15:52:17.792Z,100165.28
2022-08-08T15:54:46.235Z,100159.63
2022-08-08T15:57:18.941Z,100156.38
2022-08-08T16:00:26.059Z,100147.78
2022-08-08T16:02:44.016Z,100154.97
2022-08-08T16:05:19.137Z,100145.41
2022-08-08T16:07:51.273Z,100151.56
2022-08-08T16:13:11.974Z,100131.66
2022-08-08T16:13:43.861Z,100148.22
2022-08-08T16:16:17.844Z,100120.56
2022-08-08T16:18:56.805Z,100156.06
2022-08-08T16:21:31.769Z,100154.66
2022-08-08T16:24:04.184Z,100151.72
2022-08-08T16:26:35.701Z,100154.47
2022-08-08T16:29:09.245Z,100154.06
2022-08-08T16:31:48.236Z,100140.81
2022-08-08T16:34:20.927Z,100157.44
2022-08-08T16:37:04.244Z,100120.53
2022-08-08T16:40:02.361Z,100140.91
2022-08-08T16:42:18.564Z,100128.16
2022-08-08T16:44:58.809Z,100133.94
2022-08-08T16:47:40.452Z,100130.25
2022-08-08T16:50:14.660Z,100135.38
2022-08-08T16:55:03.025Z,100132.72
2022-08-08T16:55:54.482Z,100126.75
2022-08-08T16:58:25.650Z,100144.91
2022-08-08T17:00:54.984Z,100126.84
2022-08-08T17:03:24.756Z,100138.75
2022-08-08T17:06:37.070Z,100122.19
2022-08-08T17:09:15.249Z,100145.31
2022-08-08T17:11:48.617Z,100143.66
2022-08-08T17:14:19.013Z,100128.47
2022-08-08T17:16:57.163Z,100109.69
2022-08-08T17:19:29.815Z,100147.53
2022-08-08T17:22:39.273Z,100119.91
2022-08-08T17:25:11.856Z,100141.66
2022-08-08T17:27:46.205Z,100159.53
2022-08-08T17:30:27.348Z,100139.84
2022-08-08T17:34:36.683Z,100149.28
2022-08-08T17:35:54.115Z,100150.22
2022-08-08T17:38:30.987Z,100152.66
2022-08-08T17:40:58.017Z,100155.06
2022-08-08T17:43:24.803Z,100146.44
2022-08-08T17:45:52.785Z,100167.09
2022-08-08T17:48:29.406Z,100143.78
2022-08-08T17:50:58.278Z,100142.97
2022-08-08T17:53:43.196Z,100165.00
2022-08-08T17:56:10.521Z,100173.47
2022-08-08T17:58:39.094Z,100167.97
2022-08-08T18:01:10.272Z,100165.47
2022-08-08T18:03:37.733Z,100180.72
2022-08-08T18:06:19.900Z,100174.38
2022-08-08T18:08:55.354Z,100195.72
2022-08-08T18:11:22.369Z,100184.44
2022-08-08T18:13:49.133Z,100200.00
2022-08-08T18:16:17.186Z,100194.59
2022-08-08T18:18:52.978Z,100165.72
2022-08-08T18:21:34.595Z,100212.06
2022-08-08T18:24:17.155Z,100205.44
2022-08-08T18:26:53.691Z,100199.00
2022-08-08T18:29:29.450Z,100188.63
2022-08-08T18:31:58.643Z,100205.59
2022-08-08T18:34:26.927Z,100207.16
2022-08-08T18:36:55.640Z,100213.00
2022-08-08T18:39:27.594Z,100207.22
2022-08-08T18:41:59.865Z,100219.81
2022-08-08T18:44:32.914Z,100227.78
2022-08-08T18:47:01.902Z,100222.78
2022-08-08T18:49:32.575Z,100229.16
2022-08-08T18:52:18.609Z,100219.59
2022-08-08T18:54:59.655Z,100220.59
2022-08-08T18:57:40.721Z,100220.75
2022-08-08T19:00:15.664Z,100246.63
2022-08-08T19:02:48.578Z,100249.44
2022-08-08T19:05:22.492Z,100233.81
2022-08-08T19:07:52.229Z,100257.19
2022-08-08T19:10:19.492Z,100273.53
2022-08-08T19:12:53.192Z,100272.78
2022-08-08T19:15:21.610Z,100275.22
2022-08-08T19:18:32.870Z,100264.94
2022-08-08T19:20:39.361Z,100278.53
2022-08-08T19:23:07.737Z,100285.34
2022-08-08T19:26:19.750Z,100281.53
2022-08-08T19:28:24.576Z,100292.13
2022-08-08T19:31:03.491Z,100299.19
2022-08-08T19:33:51.932Z,100299.47
2022-08-08T19:36:27.434Z,100270.91
2022-08-08T19:38:55.997Z,100300.22
2022-08-08T19:41:28.000Z,100290.72
2022-08-08T19:44:02.844Z,100278.47
2022-08-08T19:46:33.636Z,100303.44
2022-08-08T19:49:01.681Z,100317.78
2022-08-08T19:51:34.548Z,100313.69
2022-08-08T19:54:06.637Z,100312.56
2022-08-08T19:56:39.721Z,100318.75
2022-08-08T19:59:09.271Z,100314.63
2022-08-08T20:02:02.707Z,100322.69
2022-08-08T20:04:23.966Z,100304.13
2022-08-08T20:06:50.993Z,100305.75
2022-08-08T20:09:23.169Z,100314.59
2022-08-08T20:11:52.163Z,100330.56
2022-08-08T20:14:35.885Z,100316.34
2022-08-08T20:17:07.220Z,100328.75
2022-08-08T20:19:42.098Z,100323.31
2022-08-08T20:22:13.189Z,100324.81
2022-08-08T20:24:48.439Z,100330.97
2022-08-08T20:27:20.433Z,100332.53
2022-08-08T20:29:55.552Z,100319.72
2022-08-08T20:32:26.907Z,100332.69
2022-08-08T20:35:01.477Z,100320.59
2022-08-08T20:37:37.042Z,100330.06
2022-08-08T20:40:17.388Z,100335.31
2022-08-08T20:42:55.060Z,100324.00
2022-08-08T20:45:55.179Z,100323.00
2022-08-08T20:48:09.662Z,100336.00
2022-08-08T20:50:36.870Z,100332.69
2022-08-08T20:53:06.705Z,100313.16
2022-08-08T20:55:42.598Z,100341.88
2022-08-08T20:58:14.066Z,100322.44
2022-08-08T21:00:50.720Z,100339.28
2022-08-08T21:03:17.639Z,100345.94
2022-08-08T21:05:59.115Z,100341.75
2022-08-08T21:08:37.035Z,100344.16
2022-08-08T21:11:13.821Z,100341.38
2022-08-08T21:13:43.536Z,100346.97
2022-08-08T21:16:30.682Z,100340.25
2022-08-08T21:18:59.191Z,100351.25
2022-08-08T21:21:39.641Z,100349.09
2022-08-08T21:24:22.387Z,100347.22
2022-08-08T21:26:54.158Z,100357.06
2022-08-08T21:29:21.557Z,100351.41
2022-08-08T21:31:53.337Z,100343.78
2022-08-08T21:34:25.652Z,100352.03
2022-08-08T21:36:58.446Z,100348.56
2022-08-08T21:39:41.367Z,100352.44
2022-08-08T21:42:12.291Z,100314.44
2022-08-08T21:44:59.212Z,100336.19
2022-08-08T21:48:03.646Z,100350.09
2022-08-08T21:50:15.030Z,100352.13
2022-08-08T21:54:36.810Z,100355.41
2022-08-08T21:56:30.978Z,100344.34
2022-08-08T21:58:17.226Z,100358.63
2022-08-08T22:00:44.073Z,100341.34
2022-08-08T22:03:17.546Z,100380.81
2022-08-08T22:05:45.323Z,100357.50
2022-08-08T22:08:15.340Z,100362.56
2022-08-08T22:10:42.128Z,100369.53
2022-08-08T22:13:18.943Z,100370.28
2022-08-08T22:15:58.460Z,100325.56
2022-08-08T22:18:28.606Z,100339.72
2022-08-08T22:21:10.738Z,100344.75
2022-08-08T22:23:50.254Z,100357.63
2022-08-08T22:26:30.035Z,100372.50
2022-08-08T22:29:13.558Z,100337.56
2022-08-08T22:32:02.100Z,100332.13
2022-08-08T22:34:39.601Z,100339.53
2022-08-08T22:37:27.711Z,100353.13
2022-08-08T22:40:01.088Z,100366.56
2022-08-08T22:42:48.792Z,100341.59
2022-08-08T22:45:17.722Z,100357.41
2022-08-08T22:47:49.433Z,100369.66
2022-08-08T22:50:25.168Z,100366.47
2022-08-08T22:54:28.169Z,100337.84
2022-08-08T22:55:58.480Z,100370.13
2022-08-08T22:58:32.788Z,100352.38
2022-08-08T23:01:01.003Z,100341.66
2022-08-08T23:03:52.924Z,100377.84
2022-08-08T23:06:20.132Z,100376.03
2022-08-08T23:08:55.084Z,100387.00
2022-08-08T23:12:17.304Z,100389.47
2022-08-08T23:14:11.595Z,100390.06
2022-08-08T23:16:44.216Z,100389.25
2022-08-08T23:19:15.519Z,100389.63
2022-08-08T23:21:43.103Z,100376.94
2022-08-08T23:24:13.755Z,100387.22
2022-08-08T23:26:53.272Z,100380.94
2022-08-08T23:29:24.982Z,100378.41
2022-08-08T23:31:52.069Z,100371.91
2022-08-08T23:34:19.893Z,100390.97
2022-08-08T23:36:48.248Z,100377.09
2022-08-08T23:39:15.650Z,100356.94
2022-08-08T23:41:46.767Z,100371.25
2022-08-08T23:44:18.715Z,100363.97
2022-08-08T23:48:59.781Z,100378.97
2022-08-08T23:49:34.176Z,100354.19
2022-08-08T23:52:06.259Z,100343.13
2022-08-08T23:54:41.924Z,100353.88
2022-08-08T23:57:26.658Z,100380.13
